createdAt,value
2019-01-29T00:02:41.076Z,3.10
2019-01-29T00:07:42.664Z,2.63
2019-01-29T00:12:44.265Z,2.93
2019-01-29T00:17:46.283Z,2.50
2019-01-29T00:22:47.844Z,2.73
2019-01-29T00:27:49.420Z,3.17
2019-01-29T00:32:51.102Z,2.53
2019-01-29T00:37:52.788Z,2.30
2019-01-29T00:42:54.404Z,2.50
2019-01-29T00:47:55.988Z,2.43
2019-01-29T00:52:57.659Z,2.23
2019-01-29T00:57:59.348Z,2.73
2019-01-29T01:03:01.120Z,2.50
2019-01-29T01:08:03.013Z,3.37
2019-01-29T01:13:04.694Z,2.47
2019-01-29T01:18:06.378Z,2.73
2019-01-29T01:23:08.170Z,2.93
2019-01-29T01:28:09.752Z,3.27
2019-01-29T01:33:11.362Z,2.90
2019-01-29T01:38:12.950Z,3.50
2019-01-29T01:43:14.534Z,2.80
2019-01-29T01:48:16.115Z,2.50
2019-01-29T01:53:17.808Z,2.23
2019-01-29T01:58:19.373Z,2.17
2019-01-29T02:03:20.924Z,2.17
2019-01-29T02:08:22.501Z,2.60
2019-01-29T02:13:24.082Z,2.37
2019-01-29T02:18:25.649Z,2.63
2019-01-29T02:23:27.313Z,2.50
2019-01-29T02:28:29.158Z,2.50
2019-01-29T02:33:30.717Z,2.63
2019-01-29T02:38:32.300Z,2.40
2019-01-29T02:43:33.865Z,2.67
2019-01-29T02:48:35.449Z,2.30
2019-01-29T02:53:37.005Z,2.90
2019-01-29T02:58:38.557Z,2.57
2019-01-29T03:03:40.163Z,2.93
2019-01-29T03:08:41.718Z,2.47
2019-01-29T03:13:43.295Z,2.20
2019-01-29T03:18:44.861Z,2.20
2019-01-29T03:23:46.537Z,3.00
2019-01-29T03:28:48.285Z,2.40
2019-01-29T03:33:49.958Z,2.57
2019-01-29T03:38:51.535Z,2.40
2019-01-29T03:43:53.239Z,2.13
2019-01-29T03:48:54.824Z,2.30
2019-01-29T03:53:56.430Z,2.10
2019-01-29T03:58:58.009Z,2.90
2019-01-29T04:03:59.710Z,2.40
2019-01-29T04:09:01.505Z,2.33
2019-01-29T04:14:03.484Z,1.90
2019-01-29T04:19:05.171Z,2.30
2019-01-29T04:24:06.756Z,2.23
2019-01-29T04:29:08.339Z,2.10
2019-01-29T04:34:09.944Z,1.73
2019-01-29T04:39:11.549Z,2.23
2019-01-29T04:44:13.220Z,2.13
2019-01-29T04:49:14.899Z,2.13
2019-01-29T04:54:16.476Z,1.67
2019-01-29T04:59:18.046Z,1.87
2019-01-29T05:04:19.730Z,1.80
2019-01-29T05:09:21.333Z,2.23
2019-01-29T05:14:23.018Z,2.03
2019-01-29T05:19:24.604Z,2.57
2019-01-29T05:24:26.209Z,1.87
2019-01-29T05:29:27.784Z,2.10
2019-01-29T05:34:29.381Z,2.10
2019-01-29T05:39:30.958Z,2.07
2019-01-29T05:44:32.564Z,1.80
2019-01-29T05:49:34.153Z,1.80
2019-01-29T05:54:35.741Z,2.07
2019-01-29T05:59:37.308Z,2.00
2019-01-29T06:04:38.898Z,2.17
2019-01-29T06:09:40.481Z,1.60
2019-01-29T06:14:42.063Z,2.13
2019-01-29T06:19:43.644Z,1.43
2019-01-29T06:24:45.250Z,1.37
2019-01-29T06:29:46.833Z,1.90
2019-01-29T06:34:48.417Z,1.57
2019-01-29T06:39:50.011Z,1.50
2019-01-29T06:44:51.685Z,1.57
2019-01-29T06:49:53.267Z,1.80
2019-01-29T06:54:54.876Z,1.77
2019-01-29T06:59:56.466Z,1.83
2019-01-29T07:04:58.072Z,1.63
2019-01-29T07:09:59.640Z,2.30
2019-01-29T07:15:01.238Z,2.17
2019-01-29T07:20:06.809Z,2.30
2019-01-29T07:25:11.182Z,2.07
2019-01-29T07:30:13.455Z,2.20
2019-01-29T07:35:15.141Z,2.03
2019-01-29T07:40:16.834Z,2.63
2019-01-29T07:45:18.694Z,1.90
2019-01-29T07:50:20.466Z,2.30
2019-01-29T07:55:22.052Z,2.43
2019-01-29T08:00:23.735Z,2.07
2019-01-29T08:05:25.306Z,2.43
2019-01-29T08:10:26.989Z,2.40
2019-01-29T08:15:28.677Z,2.27
2019-01-29T08:20:30.471Z,2.73
2019-01-29T08:25:32.068Z,2.70
2019-01-29T08:30:33.668Z,2.20
2019-01-29T08:35:35.448Z,2.23
2019-01-29T08:40:37.152Z,2.93
2019-01-29T08:45:38.751Z,2.43
2019-01-29T08:50:40.324Z,2.50
2019-01-29T08:55:41.874Z,2.53
2019-01-29T09:00:43.434Z,2.87
2019-01-29T09:05:45.010Z,2.50
2019-01-29T09:10:46.683Z,2.97
2019-01-29T09:15:48.261Z,2.47
2019-01-29T09:20:49.932Z,2.20
2019-01-29T09:25:51.647Z,2.40
2019-01-29T09:30:53.327Z,2.40
2019-01-29T09:35:54.909Z,2.27
2019-01-29T09:40:56.563Z,2.93
2019-01-29T09:45:58.249Z,3.13
2019-01-29T09:50:59.819Z,2.73
2019-01-29T09:56:01.432Z,2.23
2019-01-29T10:01:03.225Z,2.20
2019-01-29T10:06:04.924Z,2.53
2019-01-29T10:11:06.515Z,2.53
2019-01-29T10:16:08.079Z,2.60
2019-01-29T10:21:09.768Z,2.80
2019-01-29T10:26:11.312Z,2.40
2019-01-29T10:31:12.966Z,2.70
2019-01-29T10:36:14.621Z,2.90
2019-01-29T10:41:16.181Z,2.57
2019-01-29T10:46:17.880Z,2.90
2019-01-29T10:51:19.582Z,2.67
2019-01-29T10:56:21.248Z,2.87
2019-01-29T11:01:23.063Z,2.63
2019-01-29T11:06:24.604Z,2.73
2019-01-29T11:11:26.294Z,2.50
2019-01-29T11:16:27.872Z,2.67
2019-01-29T11:21:29.439Z,2.70
2019-01-29T11:26:31.117Z,2.87
2019-01-29T11:31:32.880Z,2.53
2019-01-29T11:36:34.550Z,2.80
2019-01-29T11:46:53.797Z,2.80
2019-01-29T11:51:55.361Z,3.00
2019-01-29T11:56:56.944Z,2.60
2019-01-29T12:01:58.634Z,3.17
2019-01-29T12:07:00.186Z,2.70
2019-01-29T12:12:01.762Z,3.43
2019-01-29T12:17:03.569Z,2.50
2019-01-29T12:22:05.223Z,2.53
2019-01-29T12:27:07.029Z,2.80
2019-01-29T12:32:08.517Z,2.43
2019-01-29T12:37:10.083Z,2.27
2019-01-29T12:42:11.681Z,1.70
2019-01-29T12:47:13.440Z,2.70
2019-01-29T12:52:21.348Z,2.33
2019-01-29T12:57:23.010Z,2.70
2019-01-29T13:02:24.685Z,2.50
2019-01-29T13:07:26.341Z,2.33
2019-01-29T13:12:27.953Z,2.10
2019-01-29T13:17:29.505Z,2.23
2019-01-29T13:22:31.065Z,2.40
2019-01-29T13:27:32.650Z,2.10
2019-01-29T13:32:34.323Z,2.57
2019-01-29T13:37:35.890Z,2.33
2019-01-29T13:42:37.456Z,2.07
2019-01-29T13:47:39.028Z,2.10
2019-01-29T13:52:40.592Z,2.00
2019-01-29T13:57:42.429Z,2.57
2019-01-29T14:02:44.116Z,2.27
2019-01-29T14:07:45.687Z,1.80
2019-01-29T14:12:47.523Z,2.10
2019-01-29T14:17:49.182Z,2.43
2019-01-29T14:22:50.862Z,1.80
2019-01-29T14:27:52.682Z,2.50
2019-01-29T14:32:54.374Z,2.60
2019-01-29T14:38:47.038Z,3.10
2019-01-29T14:43:51.396Z,2.90
2019-01-29T14:48:56.117Z,2.90
2019-01-29T14:53:57.809Z,2.80
2019-01-29T14:58:59.413Z,2.77
2019-01-29T15:04:00.999Z,2.40
2019-01-29T15:09:06.587Z,2.70
2019-01-29T15:14:08.433Z,2.40
2019-01-29T15:19:13.253Z,2.20
2019-01-29T15:24:14.889Z,2.27
2019-01-29T15:29:16.485Z,1.93
2019-01-29T15:34:18.332Z,2.37
2019-01-29T15:39:20.039Z,2.40
2019-01-29T15:44:21.763Z,2.77
2019-01-29T15:49:23.495Z,2.30
2019-01-29T15:54:25.196Z,1.97
2019-01-29T15:59:26.801Z,1.90
2019-01-29T16:04:28.390Z,2.10
2019-01-29T16:09:30.131Z,2.00
2019-01-29T16:14:31.728Z,2.60
2019-01-29T16:19:33.370Z,3.43
2019-01-29T16:24:34.968Z,4.67
2019-01-29T16:29:36.562Z,2.87
2019-01-29T16:34:38.174Z,3.17
2019-01-29T16:39:39.903Z,3.13
2019-01-29T16:44:41.584Z,2.70
2019-01-29T16:49:43.208Z,2.47
2019-01-29T16:54:45.248Z,2.33
2019-01-29T16:59:47.022Z,2.57
2019-01-29T17:04:48.813Z,2.83
2019-01-29T17:09:50.395Z,2.90
2019-01-29T17:14:51.998Z,2.77
2019-01-29T17:19:53.665Z,2.30
2019-01-29T17:24:55.256Z,2.53
2019-01-29T17:29:56.908Z,2.23
2019-01-29T17:34:58.502Z,2.10
2019-01-29T17:40:00.272Z,2.50
2019-01-29T17:45:01.946Z,2.40
2019-01-29T17:50:06.062Z,1.87
2019-01-29T17:55:09.061Z,1.97
2019-01-29T18:00:16.336Z,2.30
2019-01-29T18:05:18.017Z,2.43
2019-01-29T18:10:19.814Z,3.27
2019-01-29T18:15:23.673Z,3.40
2019-01-29T18:20:25.502Z,3.20
2019-01-29T18:25:27.271Z,2.80
2019-01-29T18:30:30.742Z,3.17
2019-01-29T18:35:32.557Z,3.50
2019-01-29T18:40:43.517Z,3.90
2019-01-29T18:45:45.200Z,4.93
2019-01-29T18:50:48.342Z,5.00
2019-01-29T18:55:50.050Z,4.67
2019-01-29T19:00:54.851Z,3.73
2019-01-29T19:05:55.447Z,3.57
2019-01-29T19:10:57.180Z,3.10
2019-01-29T19:15:58.773Z,4.70
2019-01-29T19:21:00.451Z,5.67
2019-01-29T19:26:02.209Z,5.40
2019-01-29T19:31:04.964Z,4.57
2019-01-29T19:36:06.707Z,4.00
2019-01-29T19:41:08.277Z,4.20
2019-01-29T19:46:10.021Z,4.07
2019-01-29T19:51:11.610Z,4.03
2019-01-29T19:56:13.205Z,4.60
2019-01-29T20:01:15.084Z,4.00
2019-01-29T20:06:16.795Z,3.67
2019-01-29T20:11:18.417Z,3.93
2019-01-29T20:16:20.035Z,4.20
2019-01-29T20:21:21.615Z,3.40
2019-01-29T20:26:23.320Z,3.53
2019-01-29T20:31:24.918Z,5.13
2019-01-29T20:36:26.496Z,3.93
2019-01-29T20:41:28.212Z,3.53
2019-01-29T20:46:29.904Z,3.83
2019-01-29T20:51:31.499Z,4.67
2019-01-29T20:56:33.090Z,3.90
2019-01-29T21:01:34.792Z,4.00
2019-01-29T21:06:36.488Z,3.93
2019-01-29T21:11:38.195Z,4.90
2019-01-29T21:16:39.799Z,5.60
2019-01-29T21:21:41.388Z,5.53
2019-01-29T21:26:42.965Z,5.53
2019-01-29T21:31:44.550Z,4.63
2019-01-29T21:36:46.463Z,3.70
2019-01-29T21:41:48.061Z,3.97
2019-01-29T21:46:49.661Z,4.03
2019-01-29T21:51:51.448Z,3.73
2019-01-29T21:56:53.035Z,4.60
2019-01-29T22:01:54.600Z,4.53
2019-01-29T22:06:56.321Z,4.73
2019-01-29T22:11:57.928Z,5.00
2019-01-29T22:16:59.561Z,5.10
2019-01-29T22:22:01.259Z,4.70
2019-01-29T22:27:03.101Z,5.07
2019-01-29T22:32:06.386Z,4.93
2019-01-29T22:37:08.225Z,6.10
2019-01-29T22:42:09.954Z,5.17
2019-01-29T22:47:11.561Z,5.70
2019-01-29T22:52:13.185Z,5.07
2019-01-29T22:57:14.932Z,5.43
2019-01-29T23:02:16.623Z,5.77
2019-01-29T23:07:21.438Z,4.83
2019-01-29T23:12:23.109Z,5.73
2019-01-29T23:17:24.681Z,4.30
2019-01-29T23:22:26.483Z,4.90
2019-01-29T23:27:28.044Z,5.53
2019-01-29T23:32:29.747Z,4.70
2019-01-29T23:37:31.417Z,4.87
2019-01-29T23:42:32.992Z,4.33
2019-01-29T23:47:34.566Z,3.97
2019-01-29T23:52:36.124Z,4.43
2019-01-29T23:57:37.776Z,4.20
